Time;durP1;ratioP1;P1;durP2;ratioP2;P2;SDS_P1;SDS_P2;PMS_P1;PMS_P2;Temp;Humidity;BMP_temperature;BMP_pressure;BME280_temperature;BME280_humidity;BME280_pressure;Samples;Min_cycle;Max_cycle;Signal;HPM_P1;HPM_P2
2022/04/24 00:00:01;;;;;;;13.10;8.10;;;;;;;19.71;35.28;99148.25;5031343;28;20071;-74
2022/04/24 00:02:27;;;;;;;12.30;7.63;;;;;;;19.75;35.40;99149.53;5033041;28;20033;-72
2022/04/24 00:04:53;;;;;;;18.63;7.15;;;;;;;19.73;35.27;99146.22;5032422;28;20133;-75
2022/04/24 00:07:19;;;;;;;12.73;8.02;;;;;;;19.70;35.10;99147.44;5032943;28;20140;-73
2022/04/24 00:09:44;;;;;;;13.43;7.32;;;;;;;19.66;35.17;99140.78;5031092;28;20115;-74
2022/04/24 00:12:15;;;;;;;11.55;7.15;;;;;;;19.66;35.30;99146.13;5032563;28;20041;-69
2022/04/24 00:14:42;;;;;;;11.23;6.88;;;;;;;19.60;35.46;99142.38;5031866;28;20120;-68
2022/04/24 00:17:08;;;;;;;16.52;8.05;;;;;;;19.52;35.63;99145.19;5031414;28;20044;-71
2022/04/24 00:19:33;;;;;;;13.40;6.50;;;;;;;19.55;35.97;99147.50;5032481;28;20033;-71
2022/04/24 00:21:58;;;;;;;11.27;7.03;;;;;;;19.64;35.94;99140.13;5032559;28;20049;-71
2022/04/24 00:24:25;;;;;;;15.63;8.23;;;;;;;19.72;35.56;99139.19;5032627;28;20041;-74
2022/04/24 00:26:52;;;;;;;16.45;8.48;;;;;;;19.69;35.42;99143.09;5032207;28;20566;-69
2022/04/24 00:29:17;;;;;;;15.60;7.82;;;;;;;19.65;35.23;99137.28;5033451;28;20044;-71
2022/04/24 00:31:43;;;;;;;20.17;8.27;;;;;;;19.58;35.27;99146.28;5031343;28;20070;-71
2022/04/24 00:34:08;;;;;;;21.25;8.82;;;;;;;19.51;35.31;99144.34;5030757;28;20048;-71
2022/04/24 00:36:34;;;;;;;18.75;10.45;;;;;;;19.47;35.19;99145.75;5013104;28;20485;-71
2022/04/24 00:38:59;;;;;;;13.90;7.88;;;;;;;19.42;35.36;99140.09;5032248;28;20033;-72
2022/04/24 00:41:25;;;;;;;13.63;8.65;;;;;;;19.40;35.37;99141.31;5031323;28;20416;-70
2022/04/24 00:43:54;;;;;;;14.48;8.57;;;;;;;19.39;35.56;99137.78;5032691;28;20120;-68
2022/04/24 00:46:22;;;;;;;15.93;7.85;;;;;;;19.39;35.42;99132.44;5031898;28;20476;-74
2022/04/24 00:48:48;;;;;;;13.50;8.10;;;;;;;19.40;35.35;99131.41;5032100;28;20061;-72
2022/04/24 00:51:14;;;;;;;18.17;8.30;;;;;;;19.42;35.44;99117.78;5030980;28;20127;-71
2022/04/24 00:53:39;;;;;;;20.42;9.80;;;;;;;19.41;35.32;99129.56;5031643;28;20071;-72
2022/04/24 00:56:08;;;;;;;14.63;9.00;;;;;;;19.35;35.49;99131.13;5031592;28;20472;-71
2022/04/24 00:58:35;;;;;;;14.77;7.97;;;;;;;19.33;35.31;99119.78;5032051;28;20045;-73
2022/04/24 01:01:00;;;;;;;17.58;8.93;;;;;;;19.30;35.72;99126.34;5031601;28;20484;-71
2022/04/24 01:03:27;;;;;;;15.68;9.45;;;;;;;19.31;35.62;99125.31;5032604;28;20041;-72
2022/04/24 01:05:54;;;;;;;15.30;9.65;;;;;;;19.33;35.71;99131.34;5030653;28;20387;-72
2022/04/24 01:08:20;;;;;;;18.00;9.35;;;;;;;19.32;35.55;99124.31;5028526;28;20498;-70
2022/04/24 01:10:45;;;;;;;22.05;9.57;;;;;;;19.30;35.69;99123.66;5032132;28;20040;-72
2022/04/24 01:13:11;;;;;;;21.65;10.52;;;;;;;19.25;35.64;99125.25;5032203;28;20499;-73
2022/04/24 01:15:36;;;;;;;10.88;9.07;;;;;;;19.27;35.81;99128.56;5028391;28;20096;-70
2022/04/24 01:18:02;;;;;;;17.80;9.73;;;;;;;19.29;35.60;99130.03;5027904;28;20132;-73
2022/04/24 01:20:27;;;;;;;11.85;8.35;;;;;;;19.28;35.64;99122.19;5028917;28;20036;-71
2022/04/24 01:22:53;;;;;;;16.83;7.63;;;;;;;19.20;36.13;99118.59;5031227;28;20064;-70
2022/04/24 01:25:19;;;;;;;13.80;6.72;;;;;;;19.33;36.21;99120.59;5028975;28;20041;-69
2022/04/24 01:27:44;;;;;;;15.80;7.75;;;;;;;19.56;35.83;99110.75;5031126;28;20041;-69
2022/04/24 01:30:10;;;;;;;15.50;8.18;;;;;;;19.80;35.56;99113.03;5030516;28;20045;-74
2022/04/24 01:32:38;;;;;;;16.52;7.07;;;;;;;20.01;35.51;99115.94;5030765;28;20037;-68
2022/04/24 01:35:05;;;;;;;13.18;7.40;;;;;;;20.17;35.10;99115.69;5032426;28;20115;-70
2022/04/24 01:37:30;;;;;;;16.70;7.18;;;;;;;20.30;35.09;99108.75;5034955;28;20128;-72
2022/04/24 01:39:56;;;;;;;16.63;8.13;;;;;;;20.40;34.99;99111.94;5032621;28;20548;-73
2022/04/24 01:42:22;;;;;;;10.38;6.45;;;;;;;20.51;34.96;99106.03;5034841;28;20037;-72
2022/04/24 01:44:48;;;;;;;15.95;7.15;;;;;;;20.59;34.93;99102.34;5035065;28;20124;-73
2022/04/24 01:47:13;;;;;;;11.38;6.85;;;;;;;20.66;34.79;99102.41;5035334;28;20176;-72
2022/04/24 01:49:39;;;;;;;13.48;6.97;;;;;;;20.72;34.77;99099.75;5035270;28;20049;-71
2022/04/24 01:52:06;;;;;;;11.00;6.78;;;;;;;20.78;34.71;99100.03;5034760;28;20045;-72
2022/04/24 01:54:31;;;;;;;15.48;7.15;;;;;;;20.81;34.64;99097.75;5034245;28;20118;-74
2022/04/24 01:56:57;;;;;;;10.15;7.03;;;;;;;20.84;34.39;99102.75;5035552;28;20033;-72
2022/04/24 01:59:22;;;;;;;10.05;5.93;;;;;;;20.88;34.57;99095.91;5035286;28;20502;-72
2022/04/24 02:01:48;;;;;;;9.45;6.53;;;;;;;20.91;34.29;99097.41;5034673;28;20041;-71
2022/04/24 02:04:13;;;;;;;11.32;6.53;;;;;;;20.94;34.25;99094.31;5035077;28;20115;-72
2022/04/24 02:06:39;;;;;;;11.90;7.05;;;;;;;20.96;34.27;99091.41;5034599;28;20416;-71
2022/04/24 02:09:04;;;;;;;10.48;6.47;;;;;;;20.98;34.23;99094.75;5033891;28;20531;-72
2022/04/24 02:11:30;;;;;;;11.55;6.22;;;;;;;20.99;34.28;99094.53;5035241;28;20098;-73
2022/04/24 02:13:55;;;;;;;13.38;6.75;;;;;;;21.01;34.34;99083.59;5034985;28;20578;-72
2022/04/24 02:16:21;;;;;;;11.98;7.03;;;;;;;21.04;34.11;99085.84;5033828;28;20658;-71
2022/04/24 02:18:46;;;;;;;11.35;6.93;;;;;;;21.06;34.27;99088.38;5034483;28;20044;-72
2022/04/24 02:21:13;;;;;;;10.52;6.63;;;;;;;21.08;34.26;99089.81;5033395;28;20492;-71
2022/04/24 02:23:39;;;;;;;12.15;6.13;;;;;;;21.10;34.45;99086.94;5035272;28;20441;-71
2022/04/24 02:26:04;;;;;;;9.80;6.20;;;;;;;21.12;34.43;99079.47;5034300;28;20076;-71
2022/04/24 02:28:30;;;;;;;13.90;6.53;;;;;;;21.13;34.37;99089.22;5034939;28;20063;-71
2022/04/24 02:30:55;;;;;;;11.88;6.90;;;;;;;21.15;34.41;99089.84;5034460;28;20064;-71
2022/04/24 02:33:21;;;;;;;11.48;6.82;;;;;;;21.16;34.27;99089.66;5035303;28;20055;-71
2022/04/24 02:35:46;;;;;;;12.95;5.97;;;;;;;21.17;34.09;99082.41;5034429;28;20523;-72
2022/04/24 02:38:12;;;;;;;10.25;5.97;;;;;;;21.16;34.06;99070.81;5034328;28;20064;-71
2022/04/24 02:40:38;;;;;;;11.73;6.57;;;;;;;21.19;34.09;99073.09;5033758;28;20128;-72
2022/04/24 02:43:03;;;;;;;12.95;7.07;;;;;;;21.18;33.90;99073.31;5034037;28;20117;-70
2022/04/24 02:45:29;;;;;;;14.13;6.00;;;;;;;21.18;34.00;99073.31;5025676;28;20029;-71
2022/04/24 02:47:54;;;;;;;10.73;6.32;;;;;;;21.18;34.09;99068.72;5034269;28;20104;-71
2022/04/24 02:50:23;;;;;;;14.43;5.75;;;;;;;21.20;34.11;99076.63;5034476;28;20091;-71
2022/04/24 02:52:51;;;;;;;9.93;5.93;;;;;;;21.19;33.86;99075.78;5034093;28;20037;-72
2022/04/24 02:55:17;;;;;;;9.52;6.47;;;;;;;21.22;33.87;99084.47;5033248;28;20029;-71
2022/04/24 02:57:43;;;;;;;9.52;5.93;;;;;;;21.21;34.18;99075.59;5034310;28;20040;-72
2022/04/24 03:00:10;;;;;;;9.70;6.47;;;;;;;21.23;34.00;99087.00;5033822;28;20026;-72
2022/04/24 03:02:41;;;;;;;9.35;5.90;;;;;;;21.26;33.96;99085.75;5033938;28;20051;-72
2022/04/24 03:05:15;;;;;;;12.03;6.10;;;;;;;21.26;33.80;99083.88;5033398;28;20033;-72
2022/04/24 03:07:41;;;;;;;12.52;6.43;;;;;;;21.27;33.94;99088.22;5033676;28;20716;-72
2022/04/24 03:10:08;;;;;;;9.95;6.20;;;;;;;21.28;33.81;99087.19;5033162;28;20044;-71
2022/04/24 03:12:35;;;;;;;11.15;7.20;;;;;;;21.28;33.83;99081.00;5033730;28;20123;-72
2022/04/24 03:15:01;;;;;;;10.73;6.07;;;;;;;21.30;33.78;99092.41;5033822;28;20079;-72
2022/04/24 03:17:26;;;;;;;9.57;6.50;;;;;;;21.29;33.98;99083.47;5033397;28;20384;-72
2022/04/24 03:19:52;;;;;;;7.82;5.70;;;;;;;21.30;33.78;99078.94;5033265;28;20064;-72
2022/04/24 03:22:17;;;;;;;11.23;6.43;;;;;;;21.32;33.83;99079.56;5033505;28;20033;-72
2022/04/24 03:24:43;;;;;;;12.77;6.65;;;;;;;21.32;33.83;99088.47;5033225;28;20412;-72
2022/04/24 03:27:08;;;;;;;11.00;5.80;;;;;;;21.34;33.79;99089.09;5033555;28;20041;-73
2022/04/24 03:29:34;;;;;;;8.63;5.82;;;;;;;21.36;33.73;99086.19;5033330;28;20045;-73
2022/04/24 03:31:59;;;;;;;15.00;6.22;;;;;;;21.38;33.77;99083.31;5033515;28;20029;-72
2022/04/24 03:34:24;;;;;;;10.65;6.25;;;;;;;21.39;33.85;99096.56;5033240;28;20506;-72
2022/04/24 03:36:50;;;;;;;10.57;6.00;;;;;;;21.40;33.73;99095.53;5033152;28;20037;-72
2022/04/24 03:39:15;;;;;;;10.05;6.47;;;;;;;21.41;33.84;99088.25;5032784;28;20120;-74
2022/04/24 03:41:41;;;;;;;8.90;6.07;;;;;;;21.41;33.91;99083.72;5033321;28;20413;-71
2022/04/24 03:44:07;;;;;;;10.02;6.32;;;;;;;21.43;33.46;99086.19;5032903;28;20041;-74
2022/04/24 03:46:32;;;;;;;9.30;5.70;;;;;;;21.43;33.53;99095.13;5032436;28;20037;-72
2022/04/24 03:48:58;;;;;;;11.30;6.35;;;;;;;21.43;33.54;99084.34;5032513;28;20876;-73
2022/04/24 03:51:23;;;;;;;9.77;5.97;;;;;;;21.44;33.58;99088.72;5032944;28;20044;-72
2022/04/24 03:53:48;;;;;;;17.50;6.95;;;;;;;21.45;33.71;99085.00;5033024;28;20068;-72
2022/04/24 03:56:14;;;;;;;14.15;6.07;;;;;;;21.46;33.75;99086.66;5032294;28;20068;-72
2022/04/24 03:58:39;;;;;;;8.32;5.65;;;;;;;21.47;33.80;99088.28;5032493;28;20394;-71
2022/04/24 04:01:05;;;;;;;9.20;5.90;;;;;;;21.47;33.71;99079.38;5033055;28;20033;-71
2022/04/24 04:03:30;;;;;;;9.98;5.65;;;;;;;21.47;33.88;99076.69;5033089;28;20037;-72
2022/04/24 04:05:56;;;;;;;13.45;5.50;;;;;;;21.48;33.90;99081.88;5032821;28;20464;-72
2022/04/24 04:08:21;;;;;;;10.32;6.10;;;;;;;21.49;33.76;99080.03;5032662;28;20148;-72
2022/04/24 04:10:47;;;;;;;8.32;5.57;;;;;;;21.49;33.77;99075.44;5032476;28;20039;-72
2022/04/24 04:13:13;;;;;;;10.00;6.32;;;;;;;21.52;33.78;99082.31;5033040;28;20033;-72
2022/04/24 04:15:39;;;;;;;12.70;6.25;;;;;;;21.50;33.82;99065.53;5032050;28;20112;-71
2022/04/24 04:18:04;;;;;;;13.18;5.50;;;;;;;21.51;33.78;99075.25;5032754;28;20518;-71
2022/04/24 04:20:30;;;;;;;10.30;6.15;;;;;;;21.54;33.74;99069.47;5032190;28;20107;-71
2022/04/24 04:22:56;;;;;;;12.32;6.15;;;;;;;21.54;33.87;99069.47;5032221;28;20048;-71
2022/04/24 04:25:25;;;;;;;10.80;6.10;;;;;;;21.55;33.81;99070.28;5032665;28;20124;-71
2022/04/24 04:27:54;;;;;;;11.50;6.13;;;;;;;21.56;33.77;99069.25;5032185;28;20611;-71
2022/04/24 04:30:20;;;;;;;9.05;5.82;;;;;;;21.55;33.71;99057.66;5032400;28;20443;-71
2022/04/24 04:32:46;;;;;;;14.82;6.13;;;;;;;21.56;33.76;99063.88;5032717;28;20041;-72
2022/04/24 04:35:12;;;;;;;10.35;6.57;;;;;;;21.55;33.80;99062.22;5032019;28;20102;-71
2022/04/24 04:37:39;;;;;;;9.73;5.80;;;;;;;21.55;33.53;99057.66;5031960;28;20048;-71
2022/04/24 04:40:06;;;;;;;15.75;7.15;;;;;;;21.53;33.52;99053.50;5031985;28;20033;-71
2022/04/24 04:42:32;;;;;;;11.70;5.90;;;;;;;21.55;33.60;99064.91;5032308;28;20480;-71
2022/04/24 04:45:00;;;;;;;10.23;5.68;;;;;;;21.55;33.66;99060.34;5032052;28;20053;-71
2022/04/24 04:47:27;;;;;;;10.55;6.63;;;;;;;21.55;33.47;99052.25;5032209;28;20140;-72
2022/04/24 04:49:54;;;;;;;8.20;5.60;;;;;;;21.55;33.55;99056.84;5001564;28;20080;-72
2022/04/24 04:52:19;;;;;;;13.23;6.65;;;;;;;21.56;33.55;99061.19;5031087;28;20041;-72
2022/04/24 04:54:45;;;;;;;10.85;7.18;;;;;;;21.56;33.60;99059.31;5032294;28;20033;-72
2022/04/24 04:57:10;;;;;;;12.05;6.38;;;;;;;21.57;33.56;99060.97;5031892;28;20044;-72
2022/04/24 04:59:36;;;;;;;12.88;6.50;;;;;;;21.56;33.64;99063.88;5031718;28;20079;-72
2022/04/24 05:02:01;;;;;;;15.25;6.53;;;;;;;21.55;33.58;99057.66;5031921;28;20045;-72
2022/04/24 05:04:27;;;;;;;11.40;6.47;;;;;;;21.55;33.57;99054.16;5031846;28;20048;-72
2022/04/24 05:06:52;;;;;;;7.97;5.53;;;;;;;21.57;33.52;99060.16;5031825;28;20503;-72
2022/04/24 05:09:18;;;;;;;9.82;6.25;;;;;;;21.52;33.43;99058.09;5034977;28;20033;-72
2022/04/24 05:11:43;;;;;;;9.27;6.13;;;;;;;21.51;33.74;99061.81;5035825;28;20060;-73
2022/04/24 05:14:09;;;;;;;10.55;6.53;;;;;;;21.49;33.64;99055.78;5035207;28;20096;-72
2022/04/24 05:16:34;;;;;;;11.32;6.15;;;;;;;21.53;33.58;99058.91;5036100;28;20061;-73
2022/04/24 05:18:59;;;;;;;12.25;6.20;;;;;;;21.54;33.59;99065.94;5036048;28;20437;-71
2022/04/24 05:21:25;;;;;;;8.77;5.78;;;;;;;21.53;33.46;99059.75;5035698;28;20068;-72
2022/04/24 05:23:52;;;;;;;11.73;6.72;;;;;;;21.53;33.50;99056.22;5036153;28;20048;-73
2022/04/24 05:26:18;;;;;;;13.75;5.78;;;;;;;21.54;33.53;99057.88;5035130;28;20498;-74
2022/04/24 05:28:44;;;;;;;9.07;5.95;;;;;;;21.53;33.45;99057.06;5035681;28;20045;-73
2022/04/24 05:31:09;;;;;;;7.95;5.55;;;;;;;21.55;33.41;99065.72;5035033;28;20488;-72
2022/04/24 05:33:35;;;;;;;18.23;5.70;;;;;;;21.54;33.59;99056.03;5035571;28;20033;-71
2022/04/24 05:36:00;;;;;;;10.25;5.75;;;;;;;21.54;33.42;99053.34;5035059;28;20060;-71
2022/04/24 05:38:26;;;;;;;15.38;6.25;;;;;;;21.56;33.47;99058.50;5035223;28;20045;-73
2022/04/24 05:40:51;;;;;;;12.57;5.45;;;;;;;21.53;33.61;99054.38;5035026;28;20037;-72
2022/04/24 05:43:17;;;;;;;11.45;5.88;;;;;;;21.55;33.34;99057.66;5035033;28;20041;-72
2022/04/24 05:45:42;;;;;;;10.43;5.65;;;;;;;21.55;33.46;99046.88;5035169;28;20040;-72
2022/04/24 05:48:08;;;;;;;9.07;4.95;;;;;;;21.54;33.40;99052.47;5034960;28;20408;-73
2022/04/24 05:50:33;;;;;;;13.35;4.85;;;;;;;21.57;33.37;99046.69;5034894;28;20033;-72
2022/04/24 05:53:00;;;;;;;8.55;5.47;;;;;;;21.56;33.38;99043.16;5034974;28;20028;-72
2022/04/24 05:55:26;;;;;;;14.82;5.90;;;;;;;21.55;33.46;99041.50;5035228;28;20056;-71
2022/04/24 05:57:52;;;;;;;17.00;6.35;;;;;;;21.55;33.41;99038.81;5035250;28;20492;-72
2022/04/24 06:00:18;;;;;;;11.65;6.32;;;;;;;21.54;33.52;99045.25;5034930;28;20088;-71
2022/04/24 06:02:44;;;;;;;12.15;6.43;;;;;;;21.52;33.47;99038.41;5034645;28;20041;-71
2022/04/24 06:05:13;;;;;;;11.20;5.57;;;;;;;21.52;33.40;99036.56;5034427;28;20044;-71
2022/04/24 06:07:40;;;;;;;11.60;5.43;;;;;;;21.53;33.40;99043.59;5031364;28;20045;-72
2022/04/24 06:10:06;;;;;;;10.73;5.88;;;;;;;21.52;33.26;99030.31;5034308;28;20052;-72
2022/04/24 06:12:42;;;;;;;14.70;6.43;;;;;;;21.51;33.33;99032.19;5034815;28;20042;-70
2022/04/24 06:15:13;;;;;;;11.85;6.03;;;;;;;21.54;33.38;99031.78;5034120;28;20099;-73
2022/04/24 06:17:39;;;;;;;;;;;;;;;21.46;33.28;99024.75;5034639;28;20033;-73
2022/04/24 06:20:05;;;;;;;12.63;5.63;;;;;;;21.46;33.59;99024.75;5034196;28;19916;-70
2022/04/24 06:22:41;;;;;;;9.00;5.18;;;;;;;21.50;33.40;99027.84;5034914;28;20043;-70
2022/04/24 06:25:07;;;;;;;8.95;5.78;;;;;;;21.49;33.37;99027.00;5034003;28;20503;-71
2022/04/24 06:27:32;;;;;;;11.27;6.22;;;;;;;21.50;33.58;99017.09;5034412;28;20033;-71
2022/04/24 06:29:58;;;;;;;10.18;5.18;;;;;;;21.51;33.50;99018.75;5034458;28;20099;-71
2022/04/24 06:32:28;;;;;;;12.43;5.15;;;;;;;21.53;33.49;99023.91;5033804;28;20041;-71
2022/04/24 06:34:54;;;;;;;10.13;5.45;;;;;;;21.54;33.58;99023.72;5033933;28;20048;-71
2022/04/24 06:37:19;;;;;;;10.13;5.10;;;;;;;21.55;33.58;99025.34;5034492;28;20531;-71
2022/04/24 06:39:45;;;;;;;8.27;4.68;;;;;;;21.55;33.42;99016.47;5033230;28;20087;-71
2022/04/24 06:42:10;;;;;;;11.38;6.05;;;;;;;21.55;33.53;99016.47;5033608;28;20037;-71
2022/04/24 06:44:36;;;;;;;12.57;5.40;;;;;;;21.59;33.59;99009.63;5034239;28;20040;-71
2022/04/24 06:47:02;;;;;;;14.25;5.57;;;;;;;21.59;33.52;99015.84;5034336;28;20068;-70
2022/04/24 06:49:28;;;;;;;10.30;5.43;;;;;;;21.58;33.47;99019.56;5034079;28;20064;-71
2022/04/24 06:51:53;;;;;;;8.48;5.10;;;;;;;21.61;33.40;99013.00;5034329;28;20503;-70
2022/04/24 06:54:19;;;;;;;14.85;6.10;;;;;;;21.62;33.46;99015.47;5034265;28;20049;-71
2022/04/24 06:56:44;;;;;;;14.80;5.90;;;;;;;21.64;33.51;99023.31;5033767;28;20053;-71
2022/04/24 06:59:10;;;;;;;11.32;6.53;;;;;;;21.66;33.49;99018.56;5032538;28;20416;-71
2022/04/24 07:01:35;;;;;;;9.10;4.85;;;;;;;21.66;33.44;99012.38;5034120;28;20025;-73
2022/04/24 07:04:01;;;;;;;8.80;5.07;;;;;;;21.68;33.37;99010.31;5016152;28;20033;-73
2022/04/24 07:06:26;;;;;;;11.77;5.70;;;;;;;;;;5033575;28;20044;-72
2022/04/24 07:08:51;;;;;;;10.93;5.68;;;;;;;21.70;33.40;99010.91;5032906;28;20065;-72
2022/04/24 07:11:17;;;;;;;10.70;5.80;;;;;;;21.67;33.40;99006.75;5033647;28;20056;-73
2022/04/24 07:13:44;;;;;;;8.05;5.03;;;;;;;21.70;33.33;99008.22;5033167;28;20040;-72
2022/04/24 07:16:10;;;;;;;12.85;5.28;;;;;;;21.69;33.46;99007.38;5033413;28;20056;-73
2022/04/24 07:18:35;;;;;;;8.38;5.70;;;;;;;21.70;33.35;99009.03;5033262;28;20477;-71
2022/04/24 07:21:02;;;;;;;8.45;4.65;;;;;;;21.70;33.30;99014.44;5033251;28;20120;-71
2022/04/24 07:23:28;;;;;;;10.98;5.32;;;;;;;21.72;33.38;99011.53;5015615;28;20033;-72
2022/04/24 07:25:54;;;;;;;12.60;5.47;;;;;;;21.70;33.46;98998.28;5032693;28;20127;-72
2022/04/24 07:28:19;;;;;;;7.97;5.10;;;;;;;21.75;33.26;99000.34;5033537;28;20503;-72
2022/04/24 07:30:46;;;;;;;7.20;5.22;;;;;;;21.76;33.19;99005.50;5032774;28;20099;-72
2022/04/24 07:33:11;;;;;;;10.63;4.50;;;;;;;21.80;33.12;99001.38;5033176;28;20203;-73
2022/04/24 07:35:39;;;;;;;8.32;4.53;;;;;;;21.83;33.09;98994.78;5032886;28;20550;-72
2022/04/24 07:38:04;;;;;;;9.02;5.50;;;;;;;21.86;33.23;98999.72;5033377;28;20029;-71
2022/04/24 07:40:33;;;;;;;9.40;5.00;;;;;;;21.86;33.22;98993.50;5014579;28;20043;-70
2022/04/24 07:43:00;;;;;;;10.02;5.22;;;;;;;21.87;33.23;98990.59;5033033;28;20038;-74
2022/04/24 07:45:35;;;;;;;6.85;4.68;;;;;;;21.88;33.03;98994.94;5033695;28;20192;-74
2022/04/24 07:48:02;;;;;;;7.30;4.80;;;;;;;21.89;33.19;98988.53;5033419;28;20467;-72
2022/04/24 07:50:54;;;;;;;16.90;6.40;;;;;;;21.89;33.09;98988.53;5031808;28;20117;-72
2022/04/24 07:53:20;;;;;;;7.78;4.47;;;;;;;21.91;33.09;98980.25;5028193;28;20128;-73
2022/04/24 07:55:48;;;;;;;13.18;5.20;;;;;;;21.93;33.06;98981.69;5031548;28;20033;-71
2022/04/24 07:58:15;;;;;;;10.05;4.57;;;;;;;21.99;33.02;98981.88;5031870;28;20095;-70
2022/04/24 08:00:41;;;;;;;12.43;5.03;;;;;;;22.03;32.90;98977.75;5030916;28;20216;-70
2022/04/24 08:03:11;;;;;;;11.85;5.15;;;;;;;22.04;32.93;98984.78;5029007;28;20106;-71
2022/04/24 08:05:42;;;;;;;12.87;4.57;;;;;;;22.08;32.89;98991.41;5029453;28;20033;-69
2022/04/24 08:08:16;;;;;;;11.20;5.28;;;;;;;22.10;32.85;98976.69;5029348;28;20292;-70
2022/04/24 08:10:44;;;;;;;13.88;4.53;;;;;;;22.13;32.87;98985.41;5029253;28;20095;-70
2022/04/24 08:13:10;;;;;;;11.77;4.82;;;;;;;22.13;32.99;98975.44;5029484;28;20029;-69
2022/04/24 08:15:37;;;;;;;10.85;5.55;;;;;;;22.16;33.13;98969.63;5031254;28;20095;-70
2022/04/24 08:18:04;;;;;;;9.50;4.57;;;;;;;22.22;33.04;98970.66;5032492;28;20087;-69
2022/04/24 08:20:31;;;;;;;9.07;4.97;;;;;;;22.27;32.97;98976.25;5031624;28;20531;-69
2022/04/24 08:22:59;;;;;;;16.92;4.85;;;;;;;22.31;32.85;98973.94;5031509;28;20041;-73
2022/04/24 08:25:26;;;;;;;10.40;4.90;;;;;;;22.38;32.95;98974.78;5030140;28;20524;-68
2022/04/24 08:27:53;;;;;;;11.88;5.13;;;;;;;22.46;32.85;98971.06;5030307;28;20037;-71
2022/04/24 08:30:21;;;;;;;10.82;4.68;;;;;;;22.49;32.71;98970.63;5030179;28;20064;-70
2022/04/24 08:32:48;;;;;;;7.82;5.05;;;;;;;22.48;32.79;98971.66;5029581;28;20045;-71
2022/04/24 08:35:16;;;;;;;6.68;5.00;;;;;;;22.51;32.61;98972.06;5029834;28;20041;-72
2022/04/24 08:37:44;;;;;;;10.38;5.22;;;;;;;22.53;32.58;98971.84;5027819;28;20045;-74
2022/04/24 08:40:12;;;;;;;9.18;5.40;;;;;;;22.54;32.70;98968.09;5029640;28;20045;-73
2022/04/24 08:42:39;;;;;;;8.88;4.90;;;;;;;22.56;32.86;98960.63;5027755;28;20489;-73
2022/04/24 08:45:07;;;;;;;10.05;4.40;;;;;;;22.62;33.04;98969.72;5029263;28;20135;-75
2022/04/24 08:47:33;;;;;;;10.43;4.88;;;;;;;22.69;33.12;98970.53;5030686;28;20037;-75
2022/04/24 08:50:00;;;;;;;10.13;4.93;;;;;;;22.77;33.15;98974.88;5028350;28;20033;-74
2022/04/24 08:52:27;;;;;;;10.45;4.90;;;;;;;22.85;33.38;98964.66;5030714;28;20032;-74
2022/04/24 08:54:54;;;;;;;9.25;4.47;;;;;;;22.92;33.12;98961.09;5029419;28;20029;-75
2022/04/24 08:57:22;;;;;;;9.80;4.57;;;;;;;22.99;33.22;98964.59;5029785;28;20033;-70
2022/04/24 08:59:47;;;;;;;12.48;5.75;;;;;;;23.06;33.37;98957.28;5030786;28;20077;-70
2022/04/24 09:02:13;;;;;;;7.53;4.57;;;;;;;23.08;33.05;98962.47;5030008;28;20083;-70
2022/04/24 09:04:40;;;;;;;10.60;5.50;;;;;;;23.09;32.87;98956.00;5031320;28;20075;-71
2022/04/24 09:07:07;;;;;;;12.20;5.50;;;;;;;23.08;33.03;98963.28;5029644;28;20065;-70
2022/04/24 09:09:42;;;;;;;11.45;5.43;;;;;;;23.09;32.83;98958.69;5031143;28;20045;-70
2022/04/24 09:12:38;;;;;;;13.20;4.93;;;;;;;23.13;33.13;98957.22;5020655;28;20377;-75
2022/04/24 09:15:05;;;;;;;10.50;4.97;;;;;;;23.16;33.24;98949.50;5023945;28;20445;-69
2022/04/24 09:17:34;;;;;;;18.25;5.70;;;;;;;23.24;32.84;98950.34;5028108;28;20025;-69
2022/04/24 09:20:01;;;;;;;17.83;5.35;;;;;;;23.31;32.66;98945.72;5030875;28;20036;-69
2022/04/24 09:22:27;;;;;;;10.10;4.35;;;;;;;23.38;32.71;98951.91;5030115;28;20045;-69
2022/04/24 09:25:00;;;;;;;6.25;4.45;;;;;;;23.43;32.38;98943.97;5030946;28;20045;-69
2022/04/24 09:27:27;;;;;;;8.95;4.63;;;;;;;23.50;32.44;98938.53;5029515;28;20037;-69
2022/04/24 09:29:57;;;;;;;11.80;5.05;;;;;;;23.62;31.95;98936.75;5029571;28;20030;-69
2022/04/24 09:32:24;;;;;;;12.05;5.43;;;;;;;23.70;31.84;98932.94;5028079;28;20114;-71
2022/04/24 09:34:51;;;;;;;14.68;7.50;;;;;;;23.73;31.71;98937.91;5028411;28;20037;-71
2022/04/24 09:37:17;;;;;;;16.58;6.97;;;;;;;23.80;31.94;98926.19;5031786;28;20025;-71
2022/04/24 09:39:43;;;;;;;15.55;7.25;;;;;;;23.84;31.77;98925.53;5031880;28;20037;-71
2022/04/24 09:42:14;;;;;;;17.58;7.10;;;;;;;23.86;31.45;98925.31;5031893;28;20108;-71
2022/04/24 09:44:43;;;;;;;15.93;6.57;;;;;;;23.85;31.64;98927.19;5032012;28;20033;-71
2022/04/24 09:47:10;;;;;;;15.50;6.40;;;;;;;23.86;31.33;98920.72;5032076;28;20396;-71
2022/04/24 09:49:38;;;;;;;18.15;7.63;;;;;;;23.88;31.57;98926.75;5031758;28;20057;-71
2022/04/24 09:52:12;;;;;;;14.38;6.55;;;;;;;23.91;31.37;98922.75;5014185;28;20039;-71
2022/04/24 09:54:42;;;;;;;20.17;7.13;;;;;;;23.90;31.50;98919.25;5033919;28;20033;-71
2022/04/24 09:57:09;;;;;;;22.95;7.57;;;;;;;23.91;31.68;98918.19;5036032;28;20476;-71
2022/04/24 09:59:37;;;;;;;22.98;9.05;;;;;;;23.94;31.64;98925.03;5035436;28;20037;-71
2022/04/24 10:02:04;;;;;;;14.57;6.72;;;;;;;24.03;31.58;98931.00;5017404;28;20029;-71
2022/04/24 10:04:34;;;;;;;23.70;7.65;;;;;;;24.08;31.54;98923.88;5035368;28;20107;-71
2022/04/24 10:07:00;;;;;;;13.03;5.70;;;;;;;24.15;31.44;98928.38;5035119;28;20036;-72
2022/04/24 10:09:28;;;;;;;13.13;7.05;;;;;;;24.14;31.45;98921.31;5035252;28;20404;-72
2022/04/24 10:11:54;;;;;;;13.30;4.93;;;;;;;24.19;31.37;98924.19;5035133;28;20408;-72
2022/04/24 10:14:21;;;;;;;11.60;4.90;;;;;;;24.25;31.08;98912.47;5035085;28;20042;-72
2022/04/24 10:16:57;;;;;;;10.38;4.22;;;;;;;24.28;30.91;98921.97;5035214;28;20036;-72
2022/04/24 10:19:25;;;;;;;6.88;4.30;;;;;;;24.31;30.88;98916.13;5034828;28;20475;-72
2022/04/24 10:22:37;;;;;;;7.85;4.78;;;;;;;24.37;31.16;98909.81;5034975;28;20037;-70
2022/04/24 10:25:04;;;;;;;8.10;3.90;;;;;;;24.42;30.73;98904.53;5031722;28;20404;-71
2022/04/24 10:27:41;;;;;;;10.70;5.93;;;;;;;24.50;31.46;98903.41;5035298;28;20038;-71
2022/04/24 10:30:10;;;;;;;9.20;4.00;;;;;;;24.54;31.17;98915.44;5035057;28;20033;-72
2022/04/24 10:32:36;;;;;;;9.60;3.47;;;;;;;24.58;30.94;98913.09;5034987;28;20037;-72
2022/04/24 10:35:15;;;;;;;11.02;4.18;;;;;;;24.59;31.19;98918.28;5034587;28;20091;-72
2022/04/24 10:37:40;;;;;;;7.93;4.38;;;;;;;24.60;30.91;98919.94;5034991;28;20032;-71
2022/04/24 10:40:12;;;;;;;6.90;3.85;;;;;;;24.62;31.25;98923.25;5034638;28;20041;-72
2022/04/24 10:42:39;;;;;;;5.88;3.78;;;;;;;24.64;30.72;98929.22;5034504;28;20034;-72
2022/04/24 10:45:13;;;;;;;7.20;3.67;;;;;;;24.67;30.70;98926.06;5034660;28;20033;-72
2022/04/24 10:47:42;;;;;;;6.57;3.63;;;;;;;24.68;30.60;98935.03;5034783;28;20029;-71
2022/04/24 10:50:09;;;;;;;6.55;3.13;;;;;;;24.71;30.43;98950.00;5034482;28;20559;-72
2022/04/24 10:52:43;;;;;;;4.78;3.13;;;;;;;24.71;30.43;98950.00;5034436;28;20492;-71
2022/04/24 10:55:12;;;;;;;5.30;3.10;;;;;;;24.72;30.71;98949.75;5034187;28;20029;-71
2022/04/24 10:57:54;;;;;;;5.07;3.25;;;;;;;24.73;30.49;98964.13;5034880;28;20063;-71
2022/04/24 11:00:24;;;;;;;5.50;3.00;;;;;;;24.72;30.67;98957.06;5034478;28;20036;-71
2022/04/24 11:02:52;;;;;;;11.05;3.15;;;;;;;24.75;30.74;98962.03;5034464;28;20029;-72
2022/04/24 11:05:22;;;;;;;5.07;3.45;;;;;;;24.77;30.30;98957.22;5034199;28;20159;-73
2022/04/24 11:07:48;;;;;;;4.80;2.70;;;;;;;24.76;30.43;98955.56;5034291;28;20488;-71
2022/04/24 11:10:20;;;;;;;5.25;3.00;;;;;;;24.79;30.77;98955.09;5033894;28;20086;-71
2022/04/24 11:12:48;;;;;;;5.50;2.70;;;;;;;24.79;30.77;98966.75;5034220;28;20037;-72
2022/04/24 11:15:14;;;;;;;5.20;2.88;;;;;;;24.79;30.43;98963.19;5033979;28;20033;-71
2022/04/24 11:17:41;;;;;;;3.85;2.30;;;;;;;24.80;30.41;98954.03;5033935;28;20040;-71
2022/04/24 11:20:13;;;;;;;4.93;2.53;;;;;;;24.82;30.73;98966.28;5033856;28;20040;-72
2022/04/24 11:22:46;;;;;;;3.78;2.15;;;;;;;24.81;30.49;98961.94;5034154;28;20037;-71
2022/04/24 11:25:17;;;;;;;4.10;2.72;;;;;;;24.82;30.48;98957.34;5033950;28;20045;-71
2022/04/24 11:27:44;;;;;;;4.57;3.08;;;;;;;24.83;30.54;98962.53;5033935;28;20432;-71